PASH Airport (Shishmaref) Information

FAA: SHH - ICAO: PASH

PASH Airport Location

State Alaska
County Nome
City Shishmaref
PASH Airport is 1 miles south of Shishmaref, AK.
Latitude 66-14-58.5000N
Longitude 166-05-21.7000W
Elevation 13ft

PASH Airport METARs

METAR PASH 161756Z AUTO 35016KT 7SM OVC021 05/02 A2969 RMK AO2 SLP053 6//// T00500017 10050 20044 53006 PNO $
Altimeter 29.69"
Temperature 5.0°C (41.0°F)
Wind 350° at 16KT
Clouds overcast at 2,100ft
Visibility 7.0mi
Time observed: 2021-09-16T17:56:00Z

PASH Airport Details

Status Operational
Activation February 1988
Ownership Public
Usage Public
Chart NOME
ATC on-site No
Beacon schedule sunset-sunrise
Beacon color clear green

PASH Airport Contacts

Owner ALASKA DOT&PF NORTHERN REGION
Owner address 2301 PEGER RD, FAIRBANKS, AK 99709
Owner phone 907-451-2200
Manager ANNIE N. ROACH
Manager address PO BOX 149, QUINHAGAK, AK 99655
Manager phone 907-556-8165

PASH Airport (Shishmaref) Radio Frequencies

PASH (Airport) Radio Frequencies

UNICOM N/A
Common traffic advisory frequency (CTAF) 123